createdAt,value
2023-02-23T00:00:56.456Z,19.43
2023-02-23T00:03:42.557Z,14.40
2023-02-23T00:06:29.399Z,24.83
2023-02-23T00:09:28.081Z,9.30
2023-02-23T00:12:13.192Z,11.30
2023-02-23T00:14:59.705Z,12.23
2023-02-23T00:17:47.833Z,11.63
2023-02-23T00:20:33.903Z,24.93
2023-02-23T00:23:22.606Z,14.10
2023-02-23T00:26:08.248Z,17.93
2023-02-23T00:28:56.674Z,10.50
2023-02-23T00:31:44.441Z,13.90
2023-02-23T00:34:32.108Z,23.13
2023-02-23T00:37:19.324Z,14.47
2023-02-23T00:40:13.086Z,10.40
2023-02-23T00:42:58.323Z,16.47
2023-02-23T00:45:43.716Z,13.20
2023-02-23T00:48:29.054Z,24.13
2023-02-23T00:51:15.021Z,13.43
2023-02-23T00:54:01.198Z,13.93
2023-02-23T00:56:47.687Z,16.80
2023-02-23T00:59:32.925Z,13.93
2023-02-23T01:02:18.733Z,20.40
2023-02-23T01:05:06.880Z,17.10
2023-02-23T01:07:54.489Z,14.20
2023-02-23T01:10:42.966Z,17.67
2023-02-23T01:13:28.631Z,21.50
2023-02-23T01:16:17.378Z,13.87
2023-02-23T01:19:05.279Z,20.27
2023-02-23T01:21:53.000Z,13.80
2023-02-23T01:24:40.900Z,18.90
2023-02-23T01:27:29.279Z,18.10
2023-02-23T01:30:18.092Z,13.60
2023-02-23T01:33:06.690Z,15.30
2023-02-23T01:36:01.498Z,13.10
2023-02-23T01:38:46.836Z,20.90
2023-02-23T01:41:35.113Z,14.63
2023-02-23T01:44:20.489Z,17.13
2023-02-23T01:47:06.679Z,18.43
2023-02-23T01:49:52.035Z,16.07
2023-02-23T01:52:40.254Z,17.73
2023-02-23T01:55:29.881Z,21.97
2023-02-23T01:58:19.970Z,21.03
2023-02-23T02:01:05.825Z,18.20
2023-02-23T02:04:00.927Z,13.73
2023-02-23T02:06:53.873Z,14.73
2023-02-23T02:10:03.174Z,16.73
2023-02-23T02:12:58.287Z,22.17
2023-02-23T02:16:13.205Z,24.00
2023-02-23T02:19:20.558Z,21.80
2023-02-23T02:22:41.749Z,16.90
2023-02-23T02:25:47.872Z,16.13
2023-02-23T02:28:46.226Z,17.03
2023-02-23T02:31:46.641Z,14.43
2023-02-23T02:34:57.289Z,18.77
2023-02-23T02:38:17.437Z,15.57
2023-02-23T02:41:19.678Z,22.23
2023-02-23T02:44:29.443Z,19.40
2023-02-23T02:47:24.502Z,16.10
2023-02-23T02:50:30.749Z,17.07
2023-02-23T02:53:36.677Z,19.93
2023-02-23T02:56:25.323Z,23.63
2023-02-23T02:59:35.536Z,18.50
2023-02-23T03:02:41.968Z,17.80
2023-02-23T03:06:11.162Z,16.17
2023-02-23T03:09:29.158Z,25.83
2023-02-23T03:12:45.006Z,19.37
2023-02-23T03:16:26.854Z,18.37
2023-02-23T03:19:48.589Z,16.90
2023-02-23T03:23:00.962Z,14.27
2023-02-23T03:26:18.382Z,12.93
2023-02-23T03:29:55.891Z,24.20
2023-02-23T03:36:36.538Z,11.53
2023-02-23T03:39:55.944Z,19.40
2023-02-23T03:43:01.801Z,18.90
2023-02-23T03:46:07.292Z,15.43
2023-02-23T03:49:14.379Z,18.80
2023-02-23T03:52:40.584Z,23.60
2023-02-23T03:55:51.792Z,13.50
2023-02-23T03:59:05.072Z,14.70
2023-02-23T04:02:14.029Z,17.50
2023-02-23T04:05:26.423Z,19.90
2023-02-23T04:08:37.073Z,19.03
2023-02-23T04:12:06.704Z,18.17
2023-02-23T04:15:00.121Z,14.67
2023-02-23T04:17:46.286Z,18.40
2023-02-23T04:20:31.734Z,16.53
2023-02-23T04:23:17.780Z,18.43
2023-02-23T04:26:03.102Z,17.30
2023-02-23T04:28:48.690Z,18.83
2023-02-23T04:31:36.133Z,15.67
2023-02-23T04:34:25.132Z,12.73
2023-02-23T04:37:10.719Z,19.80
2023-02-23T04:39:58.273Z,27.93
2023-02-23T04:42:45.842Z,15.03
2023-02-23T04:45:31.575Z,17.87
2023-02-23T04:48:20.195Z,18.83
2023-02-23T04:51:05.770Z,21.80
2023-02-23T04:53:51.592Z,20.47
2023-02-23T04:56:37.048Z,15.97
2023-02-23T04:59:22.591Z,23.23
2023-02-23T05:02:11.912Z,14.57
2023-02-23T05:04:57.607Z,16.00
2023-02-23T05:07:43.954Z,14.20
2023-02-23T05:10:33.160Z,30.17
2023-02-23T05:13:18.519Z,22.70
2023-02-23T05:16:04.265Z,13.90
2023-02-23T05:18:50.400Z,12.90
2023-02-23T05:21:36.349Z,14.43
2023-02-23T05:24:21.798Z,17.70
2023-02-23T05:27:09.294Z,13.07
2023-02-23T05:29:54.609Z,14.47
2023-02-23T05:32:40.256Z,14.53
2023-02-23T05:35:25.854Z,19.03
2023-02-23T05:38:11.527Z,17.90
2023-02-23T05:40:57.122Z,15.80
2023-02-23T05:43:48.316Z,12.80
2023-02-23T05:46:34.273Z,18.67
2023-02-23T05:49:22.543Z,20.87
2023-02-23T05:52:09.327Z,22.97
2023-02-23T05:54:57.330Z,18.90
2023-02-23T05:57:45.619Z,20.53
2023-02-23T06:00:31.337Z,15.00
2023-02-23T06:03:16.951Z,17.27
2023-02-23T06:06:02.465Z,19.23
2023-02-23T06:08:48.159Z,15.03
2023-02-23T06:11:33.601Z,18.07
2023-02-23T06:14:24.052Z,17.63
2023-02-23T06:17:09.413Z,17.57
2023-02-23T06:19:55.160Z,17.10
2023-02-23T06:22:42.315Z,13.47
2023-02-23T06:25:30.974Z,11.70
2023-02-23T06:28:17.184Z,19.00
2023-02-23T06:31:02.949Z,13.53
2023-02-23T06:33:50.961Z,16.80
2023-02-23T06:36:37.162Z,9.90
2023-02-23T06:39:24.883Z,19.87
2023-02-23T06:42:12.168Z,23.53
2023-02-23T06:44:57.566Z,18.07
2023-02-23T06:47:45.215Z,18.33
2023-02-23T06:50:33.044Z,20.17
2023-02-23T06:53:18.595Z,20.13
2023-02-23T06:56:04.352Z,17.07
2023-02-23T06:58:50.436Z,18.73
2023-02-23T07:01:35.817Z,19.17
2023-02-23T07:04:24.853Z,15.30
2023-02-23T07:07:11.150Z,14.60
2023-02-23T07:09:58.889Z,18.03
2023-02-23T07:12:48.976Z,20.00
2023-02-23T07:15:38.866Z,22.07
2023-02-23T07:18:24.513Z,13.90
2023-02-23T07:21:10.341Z,17.33
2023-02-23T07:23:56.049Z,16.67
2023-02-23T07:26:43.578Z,15.60
2023-02-23T07:29:29.830Z,17.60
2023-02-23T07:32:19.350Z,18.63
2023-02-23T07:35:07.829Z,23.80
2023-02-23T07:37:53.916Z,12.80
2023-02-23T07:40:39.901Z,17.37
2023-02-23T07:43:25.905Z,12.67
2023-02-23T07:46:11.688Z,17.83
2023-02-23T07:48:59.891Z,15.90
2023-02-23T07:51:47.946Z,15.63
2023-02-23T07:54:33.633Z,18.10
2023-02-23T07:57:22.497Z,14.20
2023-02-23T08:00:10.733Z,19.03
2023-02-23T08:02:56.092Z,23.47
2023-02-23T08:05:41.436Z,20.73
2023-02-23T08:08:29.233Z,24.07
2023-02-23T08:11:17.271Z,16.63
2023-02-23T08:14:03.749Z,21.63
2023-02-23T08:16:51.456Z,22.80
2023-02-23T08:19:40.209Z,15.90
2023-02-23T08:22:27.577Z,17.10
2023-02-23T08:25:13.053Z,13.93
2023-02-23T08:28:04.783Z,11.87
2023-02-23T08:30:52.646Z,21.17
2023-02-23T08:33:40.812Z,15.93
2023-02-23T08:36:28.746Z,20.97
2023-02-23T08:39:14.147Z,12.07
2023-02-23T08:41:59.594Z,14.57
2023-02-23T08:44:45.011Z,11.63
2023-02-23T08:47:30.475Z,21.33
2023-02-23T08:50:16.816Z,14.43
2023-02-23T08:53:02.273Z,16.23
2023-02-23T08:55:52.687Z,20.80
2023-02-23T08:58:38.193Z,16.47
2023-02-23T09:01:23.948Z,18.73
2023-02-23T09:04:09.828Z,19.77
2023-02-23T09:06:55.194Z,13.63
2023-02-23T09:09:43.367Z,18.30
2023-02-23T09:12:31.300Z,17.43
2023-02-23T09:15:16.757Z,15.70
2023-02-23T09:18:03.362Z,14.47
2023-02-23T09:20:48.727Z,14.70
2023-02-23T09:23:35.599Z,20.20
2023-02-23T09:26:21.949Z,16.30
2023-02-23T09:29:08.181Z,19.73
2023-02-23T09:31:57.671Z,14.37
2023-02-23T09:34:43.010Z,15.33
2023-02-23T09:37:28.920Z,13.50
2023-02-23T09:40:21.920Z,21.00
2023-02-23T09:43:16.396Z,14.10
2023-02-23T09:46:29.587Z,18.93
2023-02-23T09:49:18.491Z,16.60
2023-02-23T09:52:05.011Z,15.23
2023-02-23T09:54:50.870Z,17.63
2023-02-23T09:57:43.856Z,16.30
2023-02-23T10:00:30.983Z,17.10
2023-02-23T10:03:48.825Z,21.27
2023-02-23T10:06:35.099Z,15.43
2023-02-23T10:09:44.713Z,14.47
2023-02-23T10:12:56.158Z,22.80
2023-02-23T10:15:57.727Z,17.43
2023-02-23T10:19:24.261Z,18.93
2023-02-23T10:22:13.029Z,17.73
2023-02-23T10:25:20.227Z,18.30
2023-02-23T10:28:06.494Z,23.53
2023-02-23T10:30:56.260Z,16.30
2023-02-23T10:33:44.987Z,15.40
2023-02-23T10:36:41.226Z,23.27
2023-02-23T10:39:27.862Z,19.70
2023-02-23T10:42:17.566Z,15.33
2023-02-23T10:45:03.163Z,15.43
2023-02-23T10:47:55.940Z,20.17
2023-02-23T10:50:43.884Z,20.67
2023-02-23T10:53:35.899Z,18.70
2023-02-23T10:56:23.447Z,21.20
2023-02-23T10:59:19.433Z,22.63
2023-02-23T11:02:25.845Z,14.47
2023-02-23T11:05:53.849Z,17.00
2023-02-23T11:08:41.535Z,16.73
2023-02-23T11:11:29.099Z,19.23
2023-02-23T11:14:17.727Z,16.90
2023-02-23T11:17:03.352Z,16.70
2023-02-23T11:19:52.500Z,18.13
2023-02-23T11:22:42.778Z,20.73
2023-02-23T11:25:30.664Z,13.20
2023-02-23T11:28:20.918Z,22.97
2023-02-23T11:31:20.463Z,18.37
2023-02-23T11:34:06.837Z,23.10
2023-02-23T11:37:13.430Z,18.93
2023-02-23T11:40:19.087Z,20.57
2023-02-23T11:43:25.520Z,19.40
2023-02-23T11:46:10.970Z,18.10
2023-02-23T11:48:59.799Z,18.63
2023-02-23T11:51:51.850Z,21.83
2023-02-23T11:54:38.544Z,15.80
2023-02-23T11:57:33.743Z,18.20
2023-02-23T12:00:28.721Z,21.77
2023-02-23T12:03:23.052Z,19.40
2023-02-23T12:06:10.344Z,24.77
2023-02-23T12:09:18.594Z,20.37
2023-02-23T12:12:21.843Z,14.37
2023-02-23T12:15:20.341Z,19.37
2023-02-23T12:18:15.328Z,17.40
2023-02-23T12:21:23.488Z,25.33
2023-02-23T12:24:11.626Z,18.13
2023-02-23T12:27:17.985Z,20.93
2023-02-23T12:30:19.480Z,17.27
2023-02-23T12:33:22.972Z,19.57
2023-02-23T12:36:42.708Z,18.97
2023-02-23T12:39:36.133Z,20.90
2023-02-23T12:42:48.031Z,17.73
2023-02-23T12:45:45.350Z,15.20
2023-02-23T12:48:47.985Z,16.13
2023-02-23T12:51:42.025Z,16.40
2023-02-23T12:54:28.126Z,21.33
2023-02-23T12:57:38.649Z,24.47
2023-02-23T13:00:30.892Z,16.90
2023-02-23T13:03:52.589Z,16.33
2023-02-23T13:07:13.060Z,16.20
2023-02-23T13:10:16.993Z,22.47
2023-02-23T13:13:43.241Z,17.97
2023-02-23T13:16:47.141Z,17.40
2023-02-23T13:19:37.140Z,23.53
2023-02-23T13:22:40.648Z,15.60
2023-02-23T13:25:43.828Z,19.53
2023-02-23T13:28:45.849Z,22.80
2023-02-23T13:31:41.194Z,17.13
2023-02-23T13:34:32.522Z,19.67
2023-02-23T13:37:20.721Z,14.40
2023-02-23T13:40:15.036Z,16.80
2023-02-23T13:43:13.735Z,15.40
2023-02-23T13:46:51.192Z,16.40
2023-02-23T13:50:02.401Z,21.67
2023-02-23T13:52:48.258Z,21.30
2023-02-23T13:55:58.051Z,23.03
2023-02-23T13:58:58.688Z,20.33
2023-02-23T14:01:49.498Z,16.50
2023-02-23T14:04:37.741Z,19.97
2023-02-23T14:07:32.344Z,18.90
2023-02-23T14:10:23.616Z,16.23
2023-02-23T14:13:15.800Z,26.53
2023-02-23T14:16:17.523Z,15.27
2023-02-23T14:19:35.848Z,17.77
2023-02-23T14:22:22.193Z,17.70
2023-02-23T14:25:32.816Z,24.23
2023-02-23T14:28:31.219Z,20.80
2023-02-23T14:31:25.875Z,21.17
2023-02-23T14:34:14.413Z,22.50
2023-02-23T14:37:15.332Z,19.30
2023-02-23T14:40:29.158Z,21.60
2023-02-23T14:43:33.229Z,22.37
2023-02-23T14:46:24.844Z,24.80
2023-02-23T14:49:19.222Z,26.20
2023-02-23T14:52:24.536Z,30.13
2023-02-23T14:55:12.825Z,23.03
2023-02-23T14:58:02.057Z,30.33
2023-02-23T15:00:49.015Z,24.77
2023-02-23T15:03:34.888Z,21.37
2023-02-23T15:06:20.470Z,20.17
2023-02-23T15:09:08.916Z,27.27
2023-02-23T15:12:00.871Z,25.43
2023-02-23T15:14:52.213Z,24.80
2023-02-23T15:17:41.373Z,28.40
2023-02-23T15:23:20.181Z,31.40
2023-02-23T15:26:31.932Z,29.73
2023-02-23T15:29:23.347Z,29.53
2023-02-23T15:32:17.623Z,27.00
2023-02-23T15:35:05.068Z,29.00
2023-02-23T15:37:59.554Z,29.90
2023-02-23T15:41:06.687Z,33.20
2023-02-23T15:43:52.507Z,25.07
2023-02-23T15:46:39.254Z,31.00
2023-02-23T15:49:31.656Z,29.00
2023-02-23T15:52:22.209Z,26.50
2023-02-23T15:55:10.148Z,26.37
2023-02-23T15:58:00.800Z,33.73
2023-02-23T16:00:55.590Z,34.93
2023-02-23T16:03:55.543Z,24.47
2023-02-23T16:06:56.178Z,27.67
2023-02-23T16:09:49.777Z,30.50
2023-02-23T16:12:38.790Z,33.60
2023-02-23T16:15:27.605Z,28.57
2023-02-23T16:18:20.176Z,31.33
2023-02-23T16:21:06.624Z,33.93
2023-02-23T16:23:54.901Z,32.33
2023-02-23T16:26:57.099Z,30.80
2023-02-23T16:29:42.836Z,39.27
2023-02-23T16:32:41.472Z,35.00
2023-02-23T16:35:39.190Z,34.93
2023-02-23T16:38:35.272Z,34.53
2023-02-23T16:41:22.674Z,34.90
2023-02-23T16:44:16.042Z,37.70
2023-02-23T16:47:02.111Z,38.07
2023-02-23T16:49:48.053Z,37.33
2023-02-23T16:52:33.533Z,48.30
2023-02-23T16:55:28.484Z,40.70
2023-02-23T16:58:19.460Z,46.27
2023-02-23T17:01:05.214Z,37.30
2023-02-23T17:04:05.971Z,42.07
2023-02-23T17:06:57.927Z,44.43
2023-02-23T17:09:43.786Z,41.47
2023-02-23T17:12:29.646Z,40.23
2023-02-23T17:15:19.061Z,47.87
2023-02-23T17:18:05.792Z,48.10
2023-02-23T17:20:55.548Z,45.17
2023-02-23T17:23:51.354Z,44.27
2023-02-23T17:26:36.975Z,42.43
2023-02-23T17:29:22.675Z,42.40
2023-02-23T17:32:10.857Z,44.67
2023-02-23T17:34:56.638Z,50.03
2023-02-23T17:37:47.345Z,47.63
2023-02-23T17:40:36.360Z,43.63
2023-02-23T17:43:23.890Z,44.80
2023-02-23T17:46:13.070Z,41.57
2023-02-23T17:48:58.801Z,47.87
2023-02-23T17:51:44.458Z,47.03
2023-02-23T17:54:30.373Z,47.53
2023-02-23T17:57:16.304Z,47.37
2023-02-23T18:00:01.788Z,43.97
2023-02-23T18:02:47.952Z,45.43
2023-02-23T18:05:33.215Z,49.37
2023-02-23T18:08:20.259Z,44.17
2023-02-23T18:11:06.024Z,51.60
2023-02-23T18:13:51.658Z,47.03
2023-02-23T18:16:37.173Z,42.40
2023-02-23T18:19:25.680Z,47.10
2023-02-23T18:22:11.504Z,49.80
2023-02-23T18:24:57.350Z,50.70
2023-02-23T18:27:43.977Z,47.83
2023-02-23T18:30:29.297Z,44.90
2023-02-23T18:33:15.996Z,58.13
2023-02-23T18:36:01.867Z,48.73
2023-02-23T18:38:47.644Z,51.77
2023-02-23T18:41:33.227Z,53.43
2023-02-23T18:44:23.237Z,56.47
2023-02-23T18:47:08.556Z,49.83
2023-02-23T18:49:54.074Z,56.70
2023-02-23T18:52:40.729Z,51.90
2023-02-23T18:55:26.179Z,52.93
2023-02-23T18:58:11.855Z,47.47
2023-02-23T19:00:57.410Z,50.30
2023-02-23T19:03:45.036Z,45.47
2023-02-23T19:06:34.989Z,34.40
2023-02-23T19:09:22.499Z,37.73
2023-02-23T19:12:11.438Z,39.00
2023-02-23T19:14:57.681Z,43.47
2023-02-23T19:17:42.926Z,40.33
2023-02-23T19:20:32.602Z,39.17
2023-02-23T19:23:21.860Z,39.07
2023-02-23T19:26:09.576Z,43.57
2023-02-23T19:28:55.431Z,38.93
2023-02-23T19:31:40.660Z,36.97
2023-02-23T19:34:26.656Z,47.20
2023-02-23T19:37:12.914Z,39.43
2023-02-23T19:40:03.877Z,37.30
2023-02-23T19:42:51.043Z,39.30
2023-02-23T19:45:46.112Z,38.40
2023-02-23T19:48:31.665Z,38.93
2023-02-23T19:51:20.260Z,36.93
2023-02-23T19:54:06.751Z,32.90
2023-02-23T19:56:52.072Z,40.00
2023-02-23T19:59:37.913Z,38.53
2023-02-23T20:02:24.066Z,30.03
2023-02-23T20:05:11.945Z,29.23
2023-02-23T20:07:57.634Z,24.10
2023-02-23T20:10:42.877Z,25.40
2023-02-23T20:13:28.042Z,29.07
2023-02-23T20:16:15.015Z,27.20
2023-02-23T20:19:02.453Z,18.67
2023-02-23T20:21:50.627Z,29.60
2023-02-23T20:24:41.089Z,32.10
2023-02-23T20:27:29.991Z,27.17
2023-02-23T20:30:15.638Z,30.53
2023-02-23T20:33:10.708Z,25.87
2023-02-23T20:35:58.480Z,26.90
2023-02-23T20:38:43.614Z,24.93
2023-02-23T20:41:32.081Z,40.57
2023-02-23T20:44:17.661Z,33.40
2023-02-23T20:47:09.803Z,31.67
2023-02-23T20:49:55.855Z,36.90
2023-02-23T20:52:42.625Z,41.40
2023-02-23T20:55:29.928Z,39.07
2023-02-23T20:58:17.795Z,38.07
2023-02-23T21:01:22.984Z,33.10
2023-02-23T21:04:12.931Z,41.47
2023-02-23T21:07:07.716Z,41.03
2023-02-23T21:09:59.326Z,45.70
2023-02-23T21:12:47.023Z,37.77
2023-02-23T21:15:35.804Z,37.57
2023-02-23T21:18:24.084Z,41.47
2023-02-23T21:21:10.758Z,44.27
2023-02-23T21:23:56.007Z,43.47
2023-02-23T21:26:42.674Z,44.80
2023-02-23T21:29:28.609Z,44.83
2023-02-23T21:32:17.425Z,47.43
2023-02-23T21:35:03.109Z,41.63
2023-02-23T21:37:50.933Z,32.83
2023-02-23T21:40:42.192Z,44.30
2023-02-23T21:43:28.161Z,41.30
2023-02-23T21:46:16.212Z,39.80
2023-02-23T21:49:03.265Z,36.43
2023-02-23T21:51:50.490Z,44.63
2023-02-23T21:54:37.568Z,33.60
2023-02-23T21:57:23.731Z,51.67
2023-02-23T22:00:10.497Z,39.13
2023-02-23T22:02:58.433Z,40.53
2023-02-23T22:05:44.678Z,44.30
2023-02-23T22:08:30.820Z,44.90
2023-02-23T22:11:18.728Z,42.17
2023-02-23T22:14:06.724Z,48.07
2023-02-23T22:16:52.720Z,44.30
2023-02-23T22:19:40.678Z,40.43
2023-02-23T22:22:26.528Z,53.53
2023-02-23T22:25:12.099Z,37.33
2023-02-23T22:27:59.836Z,42.60
2023-02-23T22:30:50.869Z,42.23
2023-02-23T22:33:39.565Z,45.57
2023-02-23T22:36:25.292Z,46.43
2023-02-23T22:39:16.148Z,47.90
2023-02-23T22:42:09.214Z,40.80
2023-02-23T22:44:55.032Z,37.70
2023-02-23T22:47:40.542Z,30.77
2023-02-23T22:50:25.963Z,42.60
2023-02-23T22:53:11.679Z,50.30
2023-02-23T22:55:59.716Z,34.57
2023-02-23T22:58:49.753Z,29.80
2023-02-23T23:01:41.802Z,31.60
2023-02-23T23:04:27.434Z,38.97
2023-02-23T23:07:13.358Z,38.87
2023-02-23T23:10:05.726Z,36.40
2023-02-23T23:12:51.535Z,32.57
2023-02-23T23:15:38.967Z,40.30
2023-02-23T23:18:28.154Z,38.23
2023-02-23T23:21:21.743Z,34.23
2023-02-23T23:24:08.352Z,36.90
2023-02-23T23:26:59.973Z,40.87
2023-02-23T23:29:48.649Z,31.37
2023-02-23T23:32:37.075Z,33.73
2023-02-23T23:35:23.284Z,47.70
2023-02-23T23:38:10.933Z,43.43
2023-02-23T23:40:57.310Z,40.90
2023-02-23T23:43:46.392Z,29.57
2023-02-23T23:46:35.533Z,30.13
2023-02-23T23:49:25.508Z,39.60
2023-02-23T23:52:11.009Z,32.70
2023-02-23T23:54:57.094Z,28.77
2023-02-23T23:57:45.246Z,29.60
